sensor_id;sensor_type;location;lat;lon;timestamp;temperature;humidity
12115;DHT22;6121;49.810;6.418;2022-07-29T00:00:41;20.70;90.90
12115;DHT22;6121;49.810;6.418;2022-07-29T00:03:13;20.40;91.30
12115;DHT22;6121;49.810;6.418;2022-07-29T00:05:40;20.30;91.50
12115;DHT22;6121;49.810;6.418;2022-07-29T00:08:06;20.50;91.60
12115;DHT22;6121;49.810;6.418;2022-07-29T00:10:32;20.40;91.60
12115;DHT22;6121;49.810;6.418;2022-07-29T00:12:58;20.50;91.50
12115;DHT22;6121;49.810;6.418;2022-07-29T00:15:23;20.70;91.20
12115;DHT22;6121;49.810;6.418;2022-07-29T00:17:49;20.60;91.20
12115;DHT22;6121;49.810;6.418;2022-07-29T00:20:15;20.50;90.90
12115;DHT22;6121;49.810;6.418;2022-07-29T00:22:40;20.30;91.20
12115;DHT22;6121;49.810;6.418;2022-07-29T00:25:06;20.40;91.10
12115;DHT22;6121;49.810;6.418;2022-07-29T00:27:33;20.50;90.90
12115;DHT22;6121;49.810;6.418;2022-07-29T00:29:59;20.50;91.00
12115;DHT22;6121;49.810;6.418;2022-07-29T00:32:25;20.30;91.20
12115;DHT22;6121;49.810;6.418;2022-07-29T00:34:50;20.30;91.20
12115;DHT22;6121;49.810;6.418;2022-07-29T00:37:34;20.20;91.50
12115;DHT22;6121;49.810;6.418;2022-07-29T00:40:00;20.10;91.60
12115;DHT22;6121;49.810;6.418;2022-07-29T00:42:26;19.90;91.90
12115;DHT22;6121;49.810;6.418;2022-07-29T00:44:51;19.90;92.00
12115;DHT22;6121;49.810;6.418;2022-07-29T00:47:17;20.10;91.70
12115;DHT22;6121;49.810;6.418;2022-07-29T00:49:43;20.00;91.70
12115;DHT22;6121;49.810;6.418;2022-07-29T00:52:10;19.70;92.10
12115;DHT22;6121;49.810;6.418;2022-07-29T00:54:36;19.60;92.10
12115;DHT22;6121;49.810;6.418;2022-07-29T00:57:03;19.80;91.90
12115;DHT22;6121;49.810;6.418;2022-07-29T00:59:29;19.70;91.80
12115;DHT22;6121;49.810;6.418;2022-07-29T01:01:55;19.60;91.90
12115;DHT22;6121;49.810;6.418;2022-07-29T01:04:21;19.70;91.70
12115;DHT22;6121;49.810;6.418;2022-07-29T01:06:48;19.70;91.60
12115;DHT22;6121;49.810;6.418;2022-07-29T01:09:15;19.70;91.50
12115;DHT22;6121;49.810;6.418;2022-07-29T01:11:42;19.40;91.80
12115;DHT22;6121;49.810;6.418;2022-07-29T01:14:09;19.50;91.90
12115;DHT22;6121;49.810;6.418;2022-07-29T01:16:46;19.50;91.90
12115;DHT22;6121;49.810;6.418;2022-07-29T01:19:47;19.60;91.70
12115;DHT22;6121;49.810;6.418;2022-07-29T01:25:38;19.60;91.30
12115;DHT22;6121;49.810;6.418;2022-07-29T01:30:58;19.20;91.90
12115;DHT22;6121;49.810;6.418;2022-07-29T01:33:27;19.00;92.20
12115;DHT22;6121;49.810;6.418;2022-07-29T01:36:16;19.20;92.00
12115;DHT22;6121;49.810;6.418;2022-07-29T01:38:46;19.30;91.80
12115;DHT22;6121;49.810;6.418;2022-07-29T01:41:16;19.10;91.90
12115;DHT22;6121;49.810;6.418;2022-07-29T01:43:56;18.90;92.30
12115;DHT22;6121;49.810;6.418;2022-07-29T01:46:34;18.70;92.50
12115;DHT22;6121;49.810;6.418;2022-07-29T01:49:14;18.70;92.40
12115;DHT22;6121;49.810;6.418;2022-07-29T01:51:48;18.90;92.40
12115;DHT22;6121;49.810;6.418;2022-07-29T01:56:40;18.80;92.40
12115;DHT22;6121;49.810;6.418;2022-07-29T01:59:08;18.50;92.60
12115;DHT22;6121;49.810;6.418;2022-07-29T02:01:36;18.50;92.40
12115;DHT22;6121;49.810;6.418;2022-07-29T02:04:03;18.60;92.50
12115;DHT22;6121;49.810;6.418;2022-07-29T02:06:32;18.80;92.30
12115;DHT22;6121;49.810;6.418;2022-07-29T02:08:59;18.70;92.10
12115;DHT22;6121;49.810;6.418;2022-07-29T02:11:25;18.60;92.20
12115;DHT22;6121;49.810;6.418;2022-07-29T02:13:54;18.60;92.00
12115;DHT22;6121;49.810;6.418;2022-07-29T02:16:22;18.40;92.20
12115;DHT22;6121;49.810;6.418;2022-07-29T02:18:51;18.40;92.20
12115;DHT22;6121;49.810;6.418;2022-07-29T02:21:23;18.60;92.10
12115;DHT22;6121;49.810;6.418;2022-07-29T02:23:50;18.50;92.10
12115;DHT22;6121;49.810;6.418;2022-07-29T02:26:19;18.20;92.30
12115;DHT22;6121;49.810;6.418;2022-07-29T02:28:46;18.20;92.40
12115;DHT22;6121;49.810;6.418;2022-07-29T02:31:13;18.40;92.10
12115;DHT22;6121;49.810;6.418;2022-07-29T02:33:40;18.20;92.00
12115;DHT22;6121;49.810;6.418;2022-07-29T02:36:06;18.10;92.30
12115;DHT22;6121;49.810;6.418;2022-07-29T02:38:34;18.00;92.30
12115;DHT22;6121;49.810;6.418;2022-07-29T02:41:23;18.00;92.50
12115;DHT22;6121;49.810;6.418;2022-07-29T02:43:52;18.00;92.60
12115;DHT22;6121;49.810;6.418;2022-07-29T02:46:23;17.90;92.90
12115;DHT22;6121;49.810;6.418;2022-07-29T02:48:59;17.90;93.00
12115;DHT22;6121;49.810;6.418;2022-07-29T02:51:32;18.20;92.90
12115;DHT22;6121;49.810;6.418;2022-07-29T02:54:00;18.30;92.60
12115;DHT22;6121;49.810;6.418;2022-07-29T02:56:28;18.30;92.60
12115;DHT22;6121;49.810;6.418;2022-07-29T02:59:03;18.00;92.50
12115;DHT22;6121;49.810;6.418;2022-07-29T03:01:31;17.90;92.50
12115;DHT22;6121;49.810;6.418;2022-07-29T03:04:01;17.80;92.80
12115;DHT22;6121;49.810;6.418;2022-07-29T03:06:28;17.80;92.80
12115;DHT22;6121;49.810;6.418;2022-07-29T03:08:56;17.90;92.60
12115;DHT22;6121;49.810;6.418;2022-07-29T03:11:23;18.00;92.40
12115;DHT22;6121;49.810;6.418;2022-07-29T03:13:48;18.20;92.70
12115;DHT22;6121;49.810;6.418;2022-07-29T03:16:14;18.00;92.50
12115;DHT22;6121;49.810;6.418;2022-07-29T03:18:41;17.90;92.50
12115;DHT22;6121;49.810;6.418;2022-07-29T03:21:06;17.70;92.70
12115;DHT22;6121;49.810;6.418;2022-07-29T03:23:33;17.70;92.80
12115;DHT22;6121;49.810;6.418;2022-07-29T03:25:59;17.60;92.90
12115;DHT22;6121;49.810;6.418;2022-07-29T03:28:25;17.70;92.90
12115;DHT22;6121;49.810;6.418;2022-07-29T03:30:53;17.90;92.80
12115;DHT22;6121;49.810;6.418;2022-07-29T03:33:18;17.70;92.90
12115;DHT22;6121;49.810;6.418;2022-07-29T03:35:44;17.60;93.30
12115;DHT22;6121;49.810;6.418;2022-07-29T03:38:10;17.60;93.40
12115;DHT22;6121;49.810;6.418;2022-07-29T03:40:54;17.70;93.50
12115;DHT22;6121;49.810;6.418;2022-07-29T03:43:23;17.50;93.90
12115;DHT22;6121;49.810;6.418;2022-07-29T03:45:52;17.60;93.70
12115;DHT22;6121;49.810;6.418;2022-07-29T03:48:21;17.40;93.50
12115;DHT22;6121;49.810;6.418;2022-07-29T03:50:48;17.60;93.30
12115;DHT22;6121;49.810;6.418;2022-07-29T03:53:14;17.70;93.10
12115;DHT22;6121;49.810;6.418;2022-07-29T03:55:44;17.80;92.80
12115;DHT22;6121;49.810;6.418;2022-07-29T03:58:11;17.50;93.10
12115;DHT22;6121;49.810;6.418;2022-07-29T04:00:37;17.50;93.40
12115;DHT22;6121;49.810;6.418;2022-07-29T04:03:04;17.30;93.70
12115;DHT22;6121;49.810;6.418;2022-07-29T04:05:30;17.20;93.90
12115;DHT22;6121;49.810;6.418;2022-07-29T04:07:56;17.20;94.00
12115;DHT22;6121;49.810;6.418;2022-07-29T04:10:22;17.00;94.10
12115;DHT22;6121;49.810;6.418;2022-07-29T04:12:50;17.10;94.30
12115;DHT22;6121;49.810;6.418;2022-07-29T04:15:16;17.30;93.90
12115;DHT22;6121;49.810;6.418;2022-07-29T04:17:42;17.40;93.60
12115;DHT22;6121;49.810;6.418;2022-07-29T04:20:08;17.40;93.60
12115;DHT22;6121;49.810;6.418;2022-07-29T04:22:34;17.40;93.50
12115;DHT22;6121;49.810;6.418;2022-07-29T04:25:00;17.30;93.80
12115;DHT22;6121;49.810;6.418;2022-07-29T04:27:33;17.00;94.10
12115;DHT22;6121;49.810;6.418;2022-07-29T04:29:59;17.10;94.20
12115;DHT22;6121;49.810;6.418;2022-07-29T04:32:25;17.10;94.10
12115;DHT22;6121;49.810;6.418;2022-07-29T04:34:51;17.20;94.00
12115;DHT22;6121;49.810;6.418;2022-07-29T04:37:17;17.30;94.00
12115;DHT22;6121;49.810;6.418;2022-07-29T04:39:42;17.10;94.20
12115;DHT22;6121;49.810;6.418;2022-07-29T04:42:08;17.00;94.40
12115;DHT22;6121;49.810;6.418;2022-07-29T04:44:34;16.90;94.60
12115;DHT22;6121;49.810;6.418;2022-07-29T04:46:59;17.20;94.40
12115;DHT22;6121;49.810;6.418;2022-07-29T04:49:25;17.30;94.60
12115;DHT22;6121;49.810;6.418;2022-07-29T04:51:51;17.40;94.70
12115;DHT22;6121;49.810;6.418;2022-07-29T04:54:16;17.40;94.90
12115;DHT22;6121;49.810;6.418;2022-07-29T04:56:42;17.20;95.30
12115;DHT22;6121;49.810;6.418;2022-07-29T04:59:08;17.30;96.10
12115;DHT22;6121;49.810;6.418;2022-07-29T05:01:34;17.40;96.30
12115;DHT22;6121;49.810;6.418;2022-07-29T05:03:59;17.50;96.30
12115;DHT22;6121;49.810;6.418;2022-07-29T05:06:25;17.60;96.10
12115;DHT22;6121;49.810;6.418;2022-07-29T05:08:50;17.90;95.90
12115;DHT22;6121;49.810;6.418;2022-07-29T05:11:16;17.90;96.10
12115;DHT22;6121;49.810;6.418;2022-07-29T05:13:42;17.90;96.00
12115;DHT22;6121;49.810;6.418;2022-07-29T05:16:08;17.70;96.00
12115;DHT22;6121;49.810;6.418;2022-07-29T05:18:34;17.80;95.70
12115;DHT22;6121;49.810;6.418;2022-07-29T05:20:59;17.90;95.40
12115;DHT22;6121;49.810;6.418;2022-07-29T05:23:25;18.10;95.10
12115;DHT22;6121;49.810;6.418;2022-07-29T05:25:50;18.20;95.10
12115;DHT22;6121;49.810;6.418;2022-07-29T05:28:16;18.20;95.10
12115;DHT22;6121;49.810;6.418;2022-07-29T05:30:42;18.20;95.10
12115;DHT22;6121;49.810;6.418;2022-07-29T05:33:10;18.40;94.90
12115;DHT22;6121;49.810;6.418;2022-07-29T05:35:36;18.70;94.70
12115;DHT22;6121;49.810;6.418;2022-07-29T05:38:03;18.80;94.40
12115;DHT22;6121;49.810;6.418;2022-07-29T05:40:28;18.90;94.40
12115;DHT22;6121;49.810;6.418;2022-07-29T05:42:55;19.00;94.30
12115;DHT22;6121;49.810;6.418;2022-07-29T05:45:20;18.90;94.30
12115;DHT22;6121;49.810;6.418;2022-07-29T05:47:46;19.00;94.30
12115;DHT22;6121;49.810;6.418;2022-07-29T05:50:12;18.90;94.10
12115;DHT22;6121;49.810;6.418;2022-07-29T05:52:38;19.10;93.70
12115;DHT22;6121;49.810;6.418;2022-07-29T05:55:04;19.00;93.70
12115;DHT22;6121;49.810;6.418;2022-07-29T05:57:31;19.20;93.00
12115;DHT22;6121;49.810;6.418;2022-07-29T05:59:57;19.20;92.50
12115;DHT22;6121;49.810;6.418;2022-07-29T06:02:23;19.30;92.50
12115;DHT22;6121;49.810;6.418;2022-07-29T06:04:48;19.50;92.40
12115;DHT22;6121;49.810;6.418;2022-07-29T06:07:14;19.60;92.30
12115;DHT22;6121;49.810;6.418;2022-07-29T06:09:41;19.80;91.40
12115;DHT22;6121;49.810;6.418;2022-07-29T06:12:07;19.80;91.60
12115;DHT22;6121;49.810;6.418;2022-07-29T06:14:32;20.00;91.60
12115;DHT22;6121;49.810;6.418;2022-07-29T06:16:58;20.20;91.30
12115;DHT22;6121;49.810;6.418;2022-07-29T06:19:24;20.40;91.20
12115;DHT22;6121;49.810;6.418;2022-07-29T06:21:49;20.60;91.20
12115;DHT22;6121;49.810;6.418;2022-07-29T06:24:15;20.70;91.00
12115;DHT22;6121;49.810;6.418;2022-07-29T06:26:41;20.90;91.00
12115;DHT22;6121;49.810;6.418;2022-07-29T06:29:08;20.80;90.80
12115;DHT22;6121;49.810;6.418;2022-07-29T06:31:34;21.10;90.80
12115;DHT22;6121;49.810;6.418;2022-07-29T06:33:59;21.20;90.40
12115;DHT22;6121;49.810;6.418;2022-07-29T06:36:25;21.50;90.60
12115;DHT22;6121;49.810;6.418;2022-07-29T06:38:51;21.80;90.30
12115;DHT22;6121;49.810;6.418;2022-07-29T06:41:16;22.10;90.10
12115;DHT22;6121;49.810;6.418;2022-07-29T06:43:44;22.20;90.20
12115;DHT22;6121;49.810;6.418;2022-07-29T06:46:12;22.30;90.10
12115;DHT22;6121;49.810;6.418;2022-07-29T06:48:38;22.50;90.00
12115;DHT22;6121;49.810;6.418;2022-07-29T06:51:05;22.50;89.90
12115;DHT22;6121;49.810;6.418;2022-07-29T06:53:31;22.70;89.40
12115;DHT22;6121;49.810;6.418;2022-07-29T06:55:58;22.60;89.60
12115;DHT22;6121;49.810;6.418;2022-07-29T06:58:24;22.80;89.00
12115;DHT22;6121;49.810;6.418;2022-07-29T07:00:50;23.00;88.50
12115;DHT22;6121;49.810;6.418;2022-07-29T07:03:17;23.20;87.60
12115;DHT22;6121;49.810;6.418;2022-07-29T07:05:43;23.40;86.70
12115;DHT22;6121;49.810;6.418;2022-07-29T07:08:09;23.70;86.00
12115;DHT22;6121;49.810;6.418;2022-07-29T07:10:35;23.90;86.30
12115;DHT22;6121;49.810;6.418;2022-07-29T07:13:01;24.00;84.80
12115;DHT22;6121;49.810;6.418;2022-07-29T07:15:27;24.30;84.50
12115;DHT22;6121;49.810;6.418;2022-07-29T07:17:53;24.30;83.50
12115;DHT22;6121;49.810;6.418;2022-07-29T07:20:19;24.30;83.10
12115;DHT22;6121;49.810;6.418;2022-07-29T07:22:45;24.50;83.00
12115;DHT22;6121;49.810;6.418;2022-07-29T07:25:11;24.90;82.40
12115;DHT22;6121;49.810;6.418;2022-07-29T07:27:38;25.00;81.70
12115;DHT22;6121;49.810;6.418;2022-07-29T07:30:05;25.40;81.20
12115;DHT22;6121;49.810;6.418;2022-07-29T07:32:32;25.60;81.10
12115;DHT22;6121;49.810;6.418;2022-07-29T07:34:58;25.70;80.00
12115;DHT22;6121;49.810;6.418;2022-07-29T07:37:24;25.80;79.80
12115;DHT22;6121;49.810;6.418;2022-07-29T07:39:50;25.70;78.20
12115;DHT22;6121;49.810;6.418;2022-07-29T07:42:16;25.50;76.60
12115;DHT22;6121;49.810;6.418;2022-07-29T07:44:42;25.70;77.10
12115;DHT22;6121;49.810;6.418;2022-07-29T07:47:08;25.60;76.70
12115;DHT22;6121;49.810;6.418;2022-07-29T07:49:33;25.50;77.40
12115;DHT22;6121;49.810;6.418;2022-07-29T07:51:59;25.90;77.90
12115;DHT22;6121;49.810;6.418;2022-07-29T07:54:24;26.40;77.70
12115;DHT22;6121;49.810;6.418;2022-07-29T07:56:50;26.00;75.60
12115;DHT22;6121;49.810;6.418;2022-07-29T07:59:16;26.10;75.70
12115;DHT22;6121;49.810;6.418;2022-07-29T08:01:42;26.40;76.20
12115;DHT22;6121;49.810;6.418;2022-07-29T08:04:08;26.90;76.00
12115;DHT22;6121;49.810;6.418;2022-07-29T08:06:34;27.00;74.50
12115;DHT22;6121;49.810;6.418;2022-07-29T08:09:01;27.20;74.90
12115;DHT22;6121;49.810;6.418;2022-07-29T08:11:27;27.40;74.30
12115;DHT22;6121;49.810;6.418;2022-07-29T08:13:54;27.60;74.10
12115;DHT22;6121;49.810;6.418;2022-07-29T08:16:19;27.50;74.20
12115;DHT22;6121;49.810;6.418;2022-07-29T08:18:46;27.60;73.40
12115;DHT22;6121;49.810;6.418;2022-07-29T08:21:12;27.60;73.40
12115;DHT22;6121;49.810;6.418;2022-07-29T08:23:38;27.70;72.70
12115;DHT22;6121;49.810;6.418;2022-07-29T08:26:08;27.50;72.90
12115;DHT22;6121;49.810;6.418;2022-07-29T08:28:40;27.80;72.40
12115;DHT22;6121;49.810;6.418;2022-07-29T08:31:07;28.10;73.20
12115;DHT22;6121;49.810;6.418;2022-07-29T08:33:32;28.30;71.90
12115;DHT22;6121;49.810;6.418;2022-07-29T08:35:58;28.30;72.50
12115;DHT22;6121;49.810;6.418;2022-07-29T08:38:24;28.10;70.70
12115;DHT22;6121;49.810;6.418;2022-07-29T08:40:52;28.10;71.70
12115;DHT22;6121;49.810;6.418;2022-07-29T08:43:18;28.00;70.00
12115;DHT22;6121;49.810;6.418;2022-07-29T08:45:48;27.90;70.20
12115;DHT22;6121;49.810;6.418;2022-07-29T08:48:18;28.10;71.10
12115;DHT22;6121;49.810;6.418;2022-07-29T08:50:44;28.50;70.70
12115;DHT22;6121;49.810;6.418;2022-07-29T08:53:15;28.70;70.70
12115;DHT22;6121;49.810;6.418;2022-07-29T08:55:46;29.00;70.90
12115;DHT22;6121;49.810;6.418;2022-07-29T08:58:13;28.70;69.30
12115;DHT22;6121;49.810;6.418;2022-07-29T09:00:43;28.50;69.40
12115;DHT22;6121;49.810;6.418;2022-07-29T09:03:12;28.80;69.50
12115;DHT22;6121;49.810;6.418;2022-07-29T09:05:42;28.90;69.30
12115;DHT22;6121;49.810;6.418;2022-07-29T09:08:08;29.30;69.20
12115;DHT22;6121;49.810;6.418;2022-07-29T09:10:37;29.20;68.00
12115;DHT22;6121;49.810;6.418;2022-07-29T09:13:03;29.20;69.90
12115;DHT22;6121;49.810;6.418;2022-07-29T09:15:29;29.50;69.30
12115;DHT22;6121;49.810;6.418;2022-07-29T09:17:54;29.70;68.50
12115;DHT22;6121;49.810;6.418;2022-07-29T09:20:22;29.80;68.10
12115;DHT22;6121;49.810;6.418;2022-07-29T09:22:49;29.80;66.60
12115;DHT22;6121;49.810;6.418;2022-07-29T09:25:35;29.90;68.10
12115;DHT22;6121;49.810;6.418;2022-07-29T09:28:14;30.20;68.20
12115;DHT22;6121;49.810;6.418;2022-07-29T09:30:56;30.30;65.90
12115;DHT22;6121;49.810;6.418;2022-07-29T09:33:23;30.20;67.20
12115;DHT22;6121;49.810;6.418;2022-07-29T09:36:03;30.50;66.70
12115;DHT22;6121;49.810;6.418;2022-07-29T09:38:29;30.40;65.40
12115;DHT22;6121;49.810;6.418;2022-07-29T09:40:59;30.50;67.30
12115;DHT22;6121;49.810;6.418;2022-07-29T09:43:25;30.50;66.00
12115;DHT22;6121;49.810;6.418;2022-07-29T09:45:51;30.40;65.50
12115;DHT22;6121;49.810;6.418;2022-07-29T09:48:23;30.40;65.90
12115;DHT22;6121;49.810;6.418;2022-07-29T09:50:49;30.40;66.80
12115;DHT22;6121;49.810;6.418;2022-07-29T09:53:34;30.50;66.70
12115;DHT22;6121;49.810;6.418;2022-07-29T09:56:00;30.70;66.20
12115;DHT22;6121;49.810;6.418;2022-07-29T09:58:26;30.80;66.20
12115;DHT22;6121;49.810;6.418;2022-07-29T10:00:53;30.80;65.00
12115;DHT22;6121;49.810;6.418;2022-07-29T10:03:19;30.90;64.80
12115;DHT22;6121;49.810;6.418;2022-07-29T10:05:45;31.00;64.60
12115;DHT22;6121;49.810;6.418;2022-07-29T10:08:12;31.00;64.00
12115;DHT22;6121;49.810;6.418;2022-07-29T10:10:41;31.00;64.40
12115;DHT22;6121;49.810;6.418;2022-07-29T10:13:12;31.20;63.90
12115;DHT22;6121;49.810;6.418;2022-07-29T10:15:40;31.20;62.80
12115;DHT22;6121;49.810;6.418;2022-07-29T10:18:11;31.50;63.40
12115;DHT22;6121;49.810;6.418;2022-07-29T10:20:38;31.60;62.50
12115;DHT22;6121;49.810;6.418;2022-07-29T10:23:04;31.70;61.80
12115;DHT22;6121;49.810;6.418;2022-07-29T10:25:30;31.70;61.40
12115;DHT22;6121;49.810;6.418;2022-07-29T10:27:56;31.90;61.20
12115;DHT22;6121;49.810;6.418;2022-07-29T10:30:24;32.20;60.70
12115;DHT22;6121;49.810;6.418;2022-07-29T10:38:43;32.50;59.40
12115;DHT22;6121;49.810;6.418;2022-07-29T10:44:17;32.70;59.40
12115;DHT22;6121;49.810;6.418;2022-07-29T10:46:43;32.90;58.70
12115;DHT22;6121;49.810;6.418;2022-07-29T10:49:24;32.70;58.70
12115;DHT22;6121;49.810;6.418;2022-07-29T10:52:03;32.60;58.10
12115;DHT22;6121;49.810;6.418;2022-07-29T10:54:41;32.50;57.90
12115;DHT22;6121;49.810;6.418;2022-07-29T10:57:19;32.50;56.50
12115;DHT22;6121;49.810;6.418;2022-07-29T11:05:13;32.50;57.50
12115;DHT22;6121;49.810;6.418;2022-07-29T11:08:16;32.60;57.50
12115;DHT22;6121;49.810;6.418;2022-07-29T11:10:26;32.70;57.30
12115;DHT22;6121;49.810;6.418;2022-07-29T11:12:52;32.60;56.50
12115;DHT22;6121;49.810;6.418;2022-07-29T11:15:19;32.50;55.00
12115;DHT22;6121;49.810;6.418;2022-07-29T11:20:44;32.30;56.20
12115;DHT22;6121;49.810;6.418;2022-07-29T11:23:22;32.40;55.70
12115;DHT22;6121;49.810;6.418;2022-07-29T11:26:14;32.50;55.20
12115;DHT22;6121;49.810;6.418;2022-07-29T11:31:46;33.00;54.40
12115;DHT22;6121;49.810;6.418;2022-07-29T11:39:42;33.00;52.70
12115;DHT22;6121;49.810;6.418;2022-07-29T11:47:25;32.70;54.50
12115;DHT22;6121;49.810;6.418;2022-07-29T11:49:52;32.70;54.00
12115;DHT22;6121;49.810;6.418;2022-07-29T11:52:19;32.60;53.30
12115;DHT22;6121;49.810;6.418;2022-07-29T11:54:47;32.50;54.00
12115;DHT22;6121;49.810;6.418;2022-07-29T11:57:15;32.50;52.90
12115;DHT22;6121;49.810;6.418;2022-07-29T11:59:43;32.60;54.20
12115;DHT22;6121;49.810;6.418;2022-07-29T12:02:09;32.10;53.60
12115;DHT22;6121;49.810;6.418;2022-07-29T12:04:51;31.70;55.00
12115;DHT22;6121;49.810;6.418;2022-07-29T12:07:18;31.80;54.90
12115;DHT22;6121;49.810;6.418;2022-07-29T12:09:53;31.80;54.80
12115;DHT22;6121;49.810;6.418;2022-07-29T12:12:20;31.70;54.30
12115;DHT22;6121;49.810;6.418;2022-07-29T12:14:46;31.40;54.70
12115;DHT22;6121;49.810;6.418;2022-07-29T12:17:32;31.10;55.10
12115;DHT22;6121;49.810;6.418;2022-07-29T12:20:03;30.70;55.60
12115;DHT22;6121;49.810;6.418;2022-07-29T12:22:31;30.60;55.80
12115;DHT22;6121;49.810;6.418;2022-07-29T12:25:06;30.60;55.90
12115;DHT22;6121;49.810;6.418;2022-07-29T12:27:32;30.80;55.90
12115;DHT22;6121;49.810;6.418;2022-07-29T12:30:16;30.80;56.00
12115;DHT22;6121;49.810;6.418;2022-07-29T12:32:46;31.00;55.80
12115;DHT22;6121;49.810;6.418;2022-07-29T12:35:16;31.10;55.50
12115;DHT22;6121;49.810;6.418;2022-07-29T12:37:44;31.10;54.90
12115;DHT22;6121;49.810;6.418;2022-07-29T12:40:13;31.30;54.00
12115;DHT22;6121;49.810;6.418;2022-07-29T12:42:40;31.30;54.30
12115;DHT22;6121;49.810;6.418;2022-07-29T12:45:06;31.20;54.40
12115;DHT22;6121;49.810;6.418;2022-07-29T12:47:33;31.40;53.80
12115;DHT22;6121;49.810;6.418;2022-07-29T12:50:10;31.40;53.60
12115;DHT22;6121;49.810;6.418;2022-07-29T12:52:36;31.40;54.00
12115;DHT22;6121;49.810;6.418;2022-07-29T12:55:02;31.40;54.70
12115;DHT22;6121;49.810;6.418;2022-07-29T12:57:28;31.60;54.80
12115;DHT22;6121;49.810;6.418;2022-07-29T13:02:28;31.40;54.60
12115;DHT22;6121;49.810;6.418;2022-07-29T13:04:58;31.60;54.60
12115;DHT22;6121;49.810;6.418;2022-07-29T13:07:29;31.60;53.80
12115;DHT22;6121;49.810;6.418;2022-07-29T13:10:13;31.70;53.80
12115;DHT22;6121;49.810;6.418;2022-07-29T13:15:39;31.30;53.70
12115;DHT22;6121;49.810;6.418;2022-07-29T13:18:26;31.30;53.20
12115;DHT22;6121;49.810;6.418;2022-07-29T13:20:52;31.40;53.50
12115;DHT22;6121;49.810;6.418;2022-07-29T13:23:17;31.10;54.20
12115;DHT22;6121;49.810;6.418;2022-07-29T13:25:43;31.00;53.90
12115;DHT22;6121;49.810;6.418;2022-07-29T13:28:09;31.00;53.80
12115;DHT22;6121;49.810;6.418;2022-07-29T13:30:34;31.30;54.10
12115;DHT22;6121;49.810;6.418;2022-07-29T13:33:00;31.40;53.80
12115;DHT22;6121;49.810;6.418;2022-07-29T13:35:26;31.50;53.70
12115;DHT22;6121;49.810;6.418;2022-07-29T13:37:57;31.40;53.70
12115;DHT22;6121;49.810;6.418;2022-07-29T13:40:23;31.40;53.60
12115;DHT22;6121;49.810;6.418;2022-07-29T13:42:49;31.30;54.30
12115;DHT22;6121;49.810;6.418;2022-07-29T13:45:15;31.00;54.60
12115;DHT22;6121;49.810;6.418;2022-07-29T13:47:41;31.00;54.50
12115;DHT22;6121;49.810;6.418;2022-07-29T13:50:08;31.20;54.30
12115;DHT22;6121;49.810;6.418;2022-07-29T13:52:35;31.30;53.60
12115;DHT22;6121;49.810;6.418;2022-07-29T13:55:02;31.40;54.20
12115;DHT22;6121;49.810;6.418;2022-07-29T13:57:28;31.40;54.10
12115;DHT22;6121;49.810;6.418;2022-07-29T13:59:54;31.30;54.00
12115;DHT22;6121;49.810;6.418;2022-07-29T14:02:20;31.40;53.80
12115;DHT22;6121;49.810;6.418;2022-07-29T14:04:46;31.50;54.60
12115;DHT22;6121;49.810;6.418;2022-07-29T14:07:12;31.40;53.60
12115;DHT22;6121;49.810;6.418;2022-07-29T14:09:38;31.20;54.40
12115;DHT22;6121;49.810;6.418;2022-07-29T14:12:04;31.00;54.90
12115;DHT22;6121;49.810;6.418;2022-07-29T14:14:30;31.00;54.00
12115;DHT22;6121;49.810;6.418;2022-07-29T14:16:57;30.90;54.70
12115;DHT22;6121;49.810;6.418;2022-07-29T14:19:23;30.90;54.80
12115;DHT22;6121;49.810;6.418;2022-07-29T14:21:49;30.80;55.10
12115;DHT22;6121;49.810;6.418;2022-07-29T14:24:14;30.70;55.60
12115;DHT22;6121;49.810;6.418;2022-07-29T14:26:40;30.50;55.80
12115;DHT22;6121;49.810;6.418;2022-07-29T14:29:05;30.30;56.30
12115;DHT22;6121;49.810;6.418;2022-07-29T14:31:31;30.20;56.60
12115;DHT22;6121;49.810;6.418;2022-07-29T14:33:57;30.00;56.90
12115;DHT22;6121;49.810;6.418;2022-07-29T14:36:22;30.00;57.10
12115;DHT22;6121;49.810;6.418;2022-07-29T14:38:48;29.80;58.10
12115;DHT22;6121;49.810;6.418;2022-07-29T14:41:15;29.80;58.20
12115;DHT22;6121;49.810;6.418;2022-07-29T14:43:43;29.80;58.20
12115;DHT22;6121;49.810;6.418;2022-07-29T14:46:09;29.70;58.30
12115;DHT22;6121;49.810;6.418;2022-07-29T14:48:35;29.80;58.20
12115;DHT22;6121;49.810;6.418;2022-07-29T14:51:00;29.90;58.10
12115;DHT22;6121;49.810;6.418;2022-07-29T14:53:26;30.00;58.10
12115;DHT22;6121;49.810;6.418;2022-07-29T14:55:51;30.20;58.30
12115;DHT22;6121;49.810;6.418;2022-07-29T14:58:17;30.30;58.90
12115;DHT22;6121;49.810;6.418;2022-07-29T15:00:43;30.30;58.60
12115;DHT22;6121;49.810;6.418;2022-07-29T15:03:09;30.30;58.10
12115;DHT22;6121;49.810;6.418;2022-07-29T15:05:36;30.50;58.30
12115;DHT22;6121;49.810;6.418;2022-07-29T15:08:02;30.40;58.40
12115;DHT22;6121;49.810;6.418;2022-07-29T15:10:28;30.40;58.30
12115;DHT22;6121;49.810;6.418;2022-07-29T15:12:54;30.50;58.60
12115;DHT22;6121;49.810;6.418;2022-07-29T15:15:20;30.50;58.40
12115;DHT22;6121;49.810;6.418;2022-07-29T15:17:45;30.40;58.60
12115;DHT22;6121;49.810;6.418;2022-07-29T15:20:11;30.30;58.40
12115;DHT22;6121;49.810;6.418;2022-07-29T15:22:37;30.10;59.10
12115;DHT22;6121;49.810;6.418;2022-07-29T15:25:04;30.00;59.40
12115;DHT22;6121;49.810;6.418;2022-07-29T15:27:30;30.00;59.10
12115;DHT22;6121;49.810;6.418;2022-07-29T15:29:56;29.90;59.10
12115;DHT22;6121;49.810;6.418;2022-07-29T15:32:21;29.80;59.30
12115;DHT22;6121;49.810;6.418;2022-07-29T15:34:47;29.90;59.40
12115;DHT22;6121;49.810;6.418;2022-07-29T15:37:12;29.90;59.10
12115;DHT22;6121;49.810;6.418;2022-07-29T15:39:38;29.90;59.10
12115;DHT22;6121;49.810;6.418;2022-07-29T15:42:04;29.90;59.50
12115;DHT22;6121;49.810;6.418;2022-07-29T15:44:29;29.90;59.40
12115;DHT22;6121;49.810;6.418;2022-07-29T15:46:55;30.00;59.20
12115;DHT22;6121;49.810;6.418;2022-07-29T15:49:41;30.10;58.50
12115;DHT22;6121;49.810;6.418;2022-07-29T15:52:08;30.20;58.70
12115;DHT22;6121;49.810;6.418;2022-07-29T15:54:37;30.10;58.30
12115;DHT22;6121;49.810;6.418;2022-07-29T15:57:04;30.10;58.00
12115;DHT22;6121;49.810;6.418;2022-07-29T15:59:30;30.00;58.20
12115;DHT22;6121;49.810;6.418;2022-07-29T16:01:56;29.90;58.60
12115;DHT22;6121;49.810;6.418;2022-07-29T16:04:22;29.90;58.60
12115;DHT22;6121;49.810;6.418;2022-07-29T16:06:48;30.00;58.50
12115;DHT22;6121;49.810;6.418;2022-07-29T16:09:14;30.00;58.40
12115;DHT22;6121;49.810;6.418;2022-07-29T16:11:40;30.00;57.60
12115;DHT22;6121;49.810;6.418;2022-07-29T16:14:07;29.90;58.20
12115;DHT22;6121;49.810;6.418;2022-07-29T16:16:32;29.80;58.50
12115;DHT22;6121;49.810;6.418;2022-07-29T16:18:58;29.80;58.80
12115;DHT22;6121;49.810;6.418;2022-07-29T16:21:24;29.80;58.60
12115;DHT22;6121;49.810;6.418;2022-07-29T16:23:50;29.70;58.60
12115;DHT22;6121;49.810;6.418;2022-07-29T16:26:16;29.70;59.10
12115;DHT22;6121;49.810;6.418;2022-07-29T16:28:42;29.70;58.80
12115;DHT22;6121;49.810;6.418;2022-07-29T16:31:08;29.70;58.40
12115;DHT22;6121;49.810;6.418;2022-07-29T16:33:33;29.80;58.50